Time,TemperatureF,DewpointF,PressureIn,WindDirection,WindDirectionDegrees,WindSpeedMPH,WindSpeedGustMPH,Humidity,HourlyPrecipIn,Conditions,Clouds,dailyrainin,SolarRadiationWatts/m^2,SoftwareType,DateUTC
2013-03-11 00:00:00,38.0,35.0,30.34,SE,133,0.0,0.0,89,0.00,CLR,BKN,0.00,0.0,WeatherDisplay:10.37,2013-03-11 04:00:00,
2013-03-11 00:01:00,38.1,35.1,30.34,SE,134,0.0,0.0,89,0.00,CLR,BKN,0.00,0.0,WeatherDisplay:10.37,2013-03-11 04:01:00,
2013-03-11 00:02:00,38.1,35.1,30.34,SE,134,0.0,0.0,89,0.00,CLR,BKN,0.00,0.0,WeatherDisplay:10.37,2013-03-11 04:02:00,
2013-03-11 00:07:00,38.1,35.1,30.34,SE,134,0.0,0.0,89,0.00,CLR,BKN,0.00,0.0,WeatherDisplay:10.37,2013-03-11 04:07:00,
2013-03-11 00:12:00,38.2,35.2,30.34,SE,134,0.0,0.0,89,0.00,CLR,BKN,0.00,0.0,WeatherDisplay:10.37,2013-03-11 04:12:00,
2013-03-11 00:17:00,38.2,35.2,30.33,SE,134,4.6,4.6,89,0.00,CLR,BKN,0.00,0.0,WeatherDisplay:10.37,2013-03-11 04:17:00,
2013-03-11 00:22:00,38.2,35.2,30.33,SE,134,4.0,4.0,89,0.00,CLR,BKN,0.00,0.0,WeatherDisplay:10.37,2013-03-11 04:22:00,
2013-03-11 00:27:00,38.2,35.2,30.33,SE,144,5.0,5.0,89,0.00,CLR,BKN,0.00,0.0,WeatherDisplay:10.37,2013-03-11 04:27:00,
2013-03-11 00:32:00,38.2,35.2,30.33,SE,144,3.5,3.5,89,0.00,CLR,BKN,0.00,0.0,WeatherDisplay:10.37,2013-03-11 04:32:00,
2013-03-11 00:37:00,38.3,35.3,30.34,SE,144,0.0,0.0,89,0.00,CLR,BKN,0.00,0.0,WeatherDisplay:10.37,2013-03-11 04:37:00,
2013-03-11 00:42:00,38.4,35.4,30.34,SE,144,3.5,3.5,89,0.00,CLR,BKN,0.00,0.0,WeatherDisplay:10.37,2013-03-11 04:42:00,
2013-03-11 00:47:00,38.3,35.3,30.34,SE,144,3.5,3.5,89,0.00,CLR,BKN,0.00,0.0,WeatherDisplay:10.37,2013-03-11 04:47:00,
2013-03-11 00:52:00,38.3,35.3,30.33,SE,145,3.5,3.5,89,0.00,CLR,BKN,0.00,0.0,WeatherDisplay:10.37,2013-03-11 04:52:00,
2013-03-11 00:58:00,38.3,35.3,30.33,SE,145,3.5,3.5,89,0.00,CLR,BKN,0.00,0.0,WeatherDisplay:10.37,2013-03-11 04:58:00,
2013-03-11 01:03:00,38.4,35.4,30.34,SE,145,0.0,0.0,89,0.00,CLR,BKN,0.00,0.0,WeatherDisplay:10.37,2013-03-11 05:03:00,
2013-03-11 01:08:00,38.4,35.4,30.34,SE,146,3.5,3.5,89,0.00,CLR,BKN,0.00,0.0,WeatherDisplay:10.37,2013-03-11 05:08:00,
2013-03-11 01:13:00,38.4,35.4,30.34,SE,146,3.5,3.5,89,0.00,CLR,BKN,0.00,0.0,WeatherDisplay:10.37,2013-03-11 05:13:00,
2013-03-11 01:18:00,38.4,35.4,30.34,SE,145,0.0,0.0,89,0.00,CLR,BKN,0.00,0.0,WeatherDisplay:10.37,2013-03-11 05:18:00,
2013-03-11 01:23:00,38.5,35.5,30.32,SE,146,3.5,3.5,89,0.00,CLR,BKN,0.00,0.0,WeatherDisplay:10.37,2013-03-11 05:23:00,
2013-03-11 01:28:00,38.5,35.5,30.32,SE,145,3.5,3.5,89,0.00,CLR,BKN,0.00,0.0,WeatherDisplay:10.37,2013-03-11 05:28:00,
2013-03-11 01:33:00,38.5,35.5,30.31,SE,145,5.0,5.0,89,0.00,CLR,BKN,0.00,0.0,WeatherDisplay:10.37,2013-03-11 05:33:00,
2013-03-11 01:38:00,38.3,35.3,30.30,SE,140,5.8,5.8,89,0.00,CLR,BKN,0.00,0.0,WeatherDisplay:10.37,2013-03-11 05:38:00,
2013-03-11 01:43:00,38.2,35.2,30.31,SE,132,4.0,4.0,89,0.00,CLR,BKN,0.00,0.0,WeatherDisplay:10.37,2013-03-11 05:43:00,
2013-03-11 01:48:00,38.2,35.5,30.31,SE,132,0.0,0.0,90,0.00,CLR,BKN,0.00,0.0,WeatherDisplay:10.37,2013-03-11 05:48:00,
2013-03-11 01:53:00,38.3,35.6,30.32,SE,132,3.5,3.5,90,0.00,CLR,BKN,0.00,0.0,WeatherDisplay:10.37,2013-03-11 05:53:00,
2013-03-11 01:58:00,38.4,35.7,30.32,SE,132,0.0,0.0,90,0.00,CLR,BKN,0.00,0.0,WeatherDisplay:10.37,2013-03-11 05:58:00,
2013-03-11 02:03:00,38.5,35.8,30.32,SE,132,0.0,0.0,90,0.00,CLR,BKN,0.00,0.0,WeatherDisplay:10.37,2013-03-11 06:03:00,
2013-03-11 02:08:00,38.6,35.9,30.32,SE,132,0.0,0.0,90,0.00,CLR,BKN,0.00,0.0,WeatherDisplay:10.37,2013-03-11 06:08:00,
2013-03-11 02:13:00,38.7,36.0,30.32,SE,132,0.0,0.0,90,0.00,CLR,BKN,0.00,0.0,WeatherDisplay:10.37,2013-03-11 06:13:00,
2013-03-11 02:18:00,38.8,36.1,30.32,SE,132,0.0,0.0,90,0.00,CLR,BKN,0.00,0.0,WeatherDisplay:10.37,2013-03-11 06:18:00,
2013-03-11 02:23:00,38.8,36.1,30.31,SE,132,0.0,0.0,90,0.00,CLR,BKN,0.00,0.0,WeatherDisplay:10.37,2013-03-11 06:23:00,
2013-03-11 02:28:00,38.9,36.2,30.31,SE,132,1.1,0.0,90,0.00,CLR,BKN,0.00,0.0,WeatherDisplay:10.37,2013-03-11 06:28:00,
2013-03-11 02:33:00,38.8,36.1,30.31,SE,132,0.0,0.0,90,0.00,CLR,BKN,0.00,0.0,WeatherDisplay:10.37,2013-03-11 06:33:00,
2013-03-11 02:38:00,38.8,36.1,30.31,SE,132,0.0,0.0,90,0.00,CLR,BKN,0.00,0.0,WeatherDisplay:10.37,2013-03-11 06:38:00,
2013-03-11 02:43:00,38.8,36.1,30.31,SE,132,0.0,0.0,90,0.00,CLR,BKN,0.00,0.0,WeatherDisplay:10.37,2013-03-11 06:43:00,
2013-03-11 02:48:00,38.8,36.1,30.30,SE,132,0.0,0.0,90,0.00,CLR,BKN,0.00,0.0,WeatherDisplay:10.37,2013-03-11 06:48:00,
2013-03-11 02:53:00,38.9,36.2,30.30,SE,132,0.0,0.0,90,0.00,CLR,BKN,0.00,0.0,WeatherDisplay:10.37,2013-03-11 06:53:00,
2013-03-11 02:58:00,38.9,36.2,30.30,SE,132,0.0,0.0,90,0.00,CLR,BKN,0.00,0.0,WeatherDisplay:10.37,2013-03-11 06:58:00,
2013-03-11 03:03:00,39.0,36.3,30.30,SE,132,0.0,0.0,90,0.00,CLR,BKN,0.00,0.0,WeatherDisplay:10.37,2013-03-11 07:03:00,
2013-03-11 03:08:00,39.0,36.3,30.30,SE,132,0.0,0.0,90,0.00,CLR,BKN,0.00,0.0,WeatherDisplay:10.37,2013-03-11 07:08:00,
2013-03-11 03:13:00,39.1,36.4,30.30,SE,132,0.0,0.0,90,0.00,CLR,BKN,0.00,0.0,WeatherDisplay:10.37,2013-03-11 07:13:00,
2013-03-11 03:18:00,39.1,36.4,30.30,SE,132,0.0,0.0,90,0.00,CLR,BKN,0.00,0.0,WeatherDisplay:10.37,2013-03-11 07:18:00,
2013-03-11 03:23:00,39.2,36.5,30.29,SE,132,0.0,0.0,90,0.00,CLR,BKN,0.00,0.0,WeatherDisplay:10.37,2013-03-11 07:23:00,
2013-03-11 03:28:00,39.1,36.4,30.29,SE,132,0.0,0.0,90,0.00,CLR,BKN,0.00,0.0,WeatherDisplay:10.37,2013-03-11 07:28:00,
2013-03-11 03:33:00,39.1,36.4,30.29,SE,132,0.0,0.0,90,0.00,CLR,BKN,0.00,0.0,WeatherDisplay:10.37,2013-03-11 07:33:00,
2013-03-11 03:38:00,39.1,36.4,30.29,SE,132,0.0,0.0,90,0.00,CLR,BKN,0.00,0.0,WeatherDisplay:10.37,2013-03-11 07:38:00,
2013-03-11 03:43:00,39.2,36.5,30.29,SE,132,0.0,0.0,90,0.00,CLR,BKN,0.00,0.0,WeatherDisplay:10.37,2013-03-11 07:43:00,
2013-03-11 03:48:00,39.3,36.6,30.29,SE,132,1.0,0.0,90,0.00,CLR,BKN,0.00,0.0,WeatherDisplay:10.37,2013-03-11 07:48:00,
2013-03-11 03:53:00,39.3,36.6,30.29,SE,132,0.0,0.0,90,0.00,CLR,BKN,0.00,0.0,WeatherDisplay:10.37,2013-03-11 07:53:00,
2013-03-11 03:58:00,39.3,36.6,30.29,SE,132,3.0,3.0,90,0.00,CLR,BKN,0.00,0.0,WeatherDisplay:10.37,2013-03-11 07:58:00,
2013-03-11 04:03:00,39.3,36.6,30.29,SE,132,3.5,3.5,90,0.00,CLR,BKN,0.00,0.0,WeatherDisplay:10.37,2013-03-11 08:03:00,
2013-03-11 04:08:00,39.3,36.6,30.29,SE,132,2.3,2.3,90,0.00,CLR,BKN,0.00,0.0,WeatherDisplay:10.37,2013-03-11 08:08:00,
2013-03-11 04:13:00,39.3,36.6,30.29,SE,132,3.5,3.5,90,0.00,CLR,BKN,0.00,0.0,WeatherDisplay:10.37,2013-03-11 08:13:00,
2013-03-11 04:18:00,39.2,36.8,30.28,SE,132,3.5,3.5,91,0.00,CLR,BKN,0.00,0.0,WeatherDisplay:10.37,2013-03-11 08:18:00,
2013-03-11 04:23:00,39.3,36.9,30.28,SE,132,0.0,0.0,91,0.00,CLR,BKN,0.00,0.0,WeatherDisplay:10.37,2013-03-11 08:23:00,
2013-03-11 04:28:00,39.4,37.0,30.28,SE,132,0.0,0.0,91,0.00,CLR,BKN,0.00,0.0,WeatherDisplay:10.37,2013-03-11 08:28:00,
2013-03-11 04:33:00,39.4,37.0,30.28,SE,132,0.0,0.0,91,0.00,CLR,BKN,0.00,0.0,WeatherDisplay:10.37,2013-03-11 08:33:00,
2013-03-11 04:38:00,39.5,37.1,30.28,SE,132,2.3,2.3,91,0.00,CLR,BKN,0.00,0.0,WeatherDisplay:10.37,2013-03-11 08:38:00,
2013-03-11 04:43:00,39.5,37.1,30.28,SE,132,0.0,0.0,91,0.00,CLR,BKN,0.00,0.0,WeatherDisplay:10.37,2013-03-11 08:43:00,
2013-03-11 04:48:00,39.6,37.2,30.28,SE,132,0.0,0.0,91,0.00,CLR,BKN,0.00,0.0,WeatherDisplay:10.37,2013-03-11 08:48:00,
2013-03-11 04:53:00,39.5,37.1,30.28,SE,132,0.0,0.0,91,0.00,CLR,BKN,0.00,0.0,WeatherDisplay:10.37,2013-03-11 08:53:00,
2013-03-11 04:58:00,39.5,37.1,30.28,SE,132,0.0,0.0,91,0.00,CLR,BKN,0.00,0.0,WeatherDisplay:10.37,2013-03-11 08:58:00,
2013-03-11 05:03:00,39.5,37.1,30.27,SE,132,0.0,0.0,91,0.00,CLR,BKN,0.00,0.0,WeatherDisplay:10.37,2013-03-11 09:03:00,
2013-03-11 05:08:00,39.6,37.2,30.27,SE,132,3.5,3.5,91,0.00,CLR,BKN,0.00,0.0,WeatherDisplay:10.37,2013-03-11 09:08:00,
2013-03-11 05:13:00,39.6,37.2,30.28,SE,132,0.0,0.0,91,0.00,CLR,BKN,0.00,0.0,WeatherDisplay:10.37,2013-03-11 09:13:00,
2013-03-11 05:18:00,39.6,37.2,30.28,SE,132,0.0,0.0,91,0.00,CLR,BKN,0.00,0.0,WeatherDisplay:10.37,2013-03-11 09:18:00,
2013-03-11 05:23:00,39.7,37.3,30.28,SE,132,0.0,0.0,91,0.00,CLR,BKN,0.00,0.0,WeatherDisplay:10.37,2013-03-11 09:23:00,
2013-03-11 05:28:00,39.7,37.3,30.27,SE,132,0.0,0.0,91,0.00,CLR,BKN,0.00,0.0,WeatherDisplay:10.37,2013-03-11 09:28:00,
2013-03-11 05:33:00,39.7,37.3,30.27,SE,132,2.3,2.3,91,0.00,CLR,BKN,0.00,0.0,WeatherDisplay:10.37,2013-03-11 09:33:00,
2013-03-11 05:38:00,39.6,37.2,30.27,SE,132,1.1,0.0,91,0.00,CLR,BKN,0.00,0.0,WeatherDisplay:10.37,2013-03-11 09:38:00,
2013-03-11 05:43:00,39.6,37.2,30.27,SE,132,0.0,0.0,91,0.00,CLR,BKN,0.00,0.0,WeatherDisplay:10.37,2013-03-11 09:43:00,
2013-03-11 05:48:00,39.7,37.3,30.27,SE,132,2.3,2.3,91,0.00,CLR,BKN,0.00,0.0,WeatherDisplay:10.37,2013-03-11 09:48:00,
2013-03-11 05:53:00,39.7,37.6,30.27,SE,132,2.3,2.3,92,0.00,CLR,BKN,0.00,0.0,WeatherDisplay:10.37,2013-03-11 09:53:00,
2013-03-11 05:58:00,39.8,37.7,30.27,SE,132,0.0,0.0,92,0.00,CLR,BKN,0.00,0.0,WeatherDisplay:10.37,2013-03-11 09:58:00,
2013-03-11 06:03:00,39.8,37.4,30.27,SE,132,0.0,0.0,91,0.00,CLR,BKN,0.00,0.0,WeatherDisplay:10.37,2013-03-11 10:03:00,
2013-03-11 06:08:00,39.8,37.4,30.26,SE,132,0.0,0.0,91,0.00,CLR,BKN,0.00,0.0,WeatherDisplay:10.37,2013-03-11 10:08:00,
2013-03-11 06:13:00,39.8,37.7,30.26,SE,132,0.0,0.0,92,0.00,CLR,BKN,0.00,0.0,WeatherDisplay:10.37,2013-03-11 10:13:00,
2013-03-11 06:18:00,39.8,37.7,30.26,SE,132,0.0,0.0,92,0.00,CLR,BKN,0.00,0.0,WeatherDisplay:10.37,2013-03-11 10:18:00,
2013-03-11 06:23:00,39.8,37.7,30.26,SE,132,0.0,0.0,92,0.00,CLR,BKN,0.00,0.0,WeatherDisplay:10.37,2013-03-11 10:23:00,
2013-03-11 06:28:00,39.8,37.4,30.27,SE,132,0.0,0.0,91,0.00,CLR,BKN,0.00,0.0,WeatherDisplay:10.37,2013-03-11 10:28:00,
2013-03-11 06:33:00,39.8,37.4,30.27,SE,132,0.0,0.0,91,0.00,CLR,BKN,0.00,0.0,WeatherDisplay:10.37,2013-03-11 10:33:00,
2013-03-11 06:38:00,39.8,37.7,30.27,SE,132,0.0,0.0,92,0.00,CLR,BKN,0.00,0.0,WeatherDisplay:10.37,2013-03-11 10:38:00,
2013-03-11 06:43:00,39.8,37.7,30.26,SE,132,0.0,0.0,92,0.00,CLR,BKN,0.00,0.0,WeatherDisplay:10.37,2013-03-11 10:43:00,
2013-03-11 06:48:00,39.9,37.8,30.27,SE,132,0.0,0.0,92,0.00,CLR,BKN,0.00,0.0,WeatherDisplay:10.37,2013-03-11 10:48:00,
2013-03-11 06:53:00,39.9,37.8,30.27,SE,132,0.0,0.0,92,0.00,CLR,BKN,0.00,0.0,WeatherDisplay:10.37,2013-03-11 10:53:00,
2013-03-11 06:58:00,39.8,37.4,30.26,SE,132,0.0,0.0,91,0.00,CLR,BKN,0.00,0.0,WeatherDisplay:10.37,2013-03-11 10:58:00,
2013-03-11 07:04:00,39.8,37.7,30.27,SE,132,0.0,0.0,92,0.00,OVC,BKN,0.00,0.0,WeatherDisplay:10.37,2013-03-11 11:04:00,
2013-03-11 07:09:00,39.9,37.8,30.27,SE,132,0.0,0.0,92,0.00,OVC,BKN,0.00,0.0,WeatherDisplay:10.37,2013-03-11 11:09:00,
2013-03-11 07:14:00,39.9,37.8,30.26,SE,132,3.5,3.5,92,0.00,OVC,BKN,0.00,0.0,WeatherDisplay:10.37,2013-03-11 11:14:00,
2013-03-11 07:19:00,39.9,37.8,30.26,SE,132,4.6,4.6,92,0.00,OVC,BKN,0.00,0.0,WeatherDisplay:10.37,2013-03-11 11:19:00,
2013-03-11 07:24:00,39.8,37.4,30.26,SE,132,2.3,2.3,91,0.00,OVC,BKN,0.00,0.0,WeatherDisplay:10.37,2013-03-11 11:24:00,
2013-03-11 07:29:00,39.8,37.7,30.26,SE,132,5.0,5.0,92,0.00,SCT,BKN,0.00,7.0,WeatherDisplay:10.37,2013-03-11 11:29:00,
2013-03-11 07:34:00,39.8,37.7,30.26,SE,132,4.6,4.6,92,0.00,BKN,,0.00,11.0,WeatherDisplay:10.37,2013-03-11 11:34:00,
2013-03-11 07:39:00,39.8,37.7,30.26,SE,132,3.5,3.5,92,0.00,BKN,,0.00,16.0,WeatherDisplay:10.37,2013-03-11 11:39:00,
2013-03-11 07:44:00,39.9,37.8,30.26,SE,132,0.0,0.0,92,0.00,BKN,,0.00,18.0,WeatherDisplay:10.37,2013-03-11 11:44:00,
2013-03-11 07:49:00,40.0,37.9,30.26,SE,132,3.5,3.5,92,0.00,BKN,,0.00,23.0,WeatherDisplay:10.37,2013-03-11 11:49:00,
2013-03-11 07:54:00,40.2,38.1,30.26,SE,132,3.5,3.5,92,0.00,BKN,,0.00,26.0,WeatherDisplay:10.37,2013-03-11 11:54:00,
2013-03-11 07:59:00,40.3,38.2,30.26,SE,132,4.6,4.6,92,0.00,BKN,,0.00,32.0,WeatherDisplay:10.37,2013-03-11 11:59:00,
2013-03-11 08:04:00,40.5,38.4,30.26,SE,132,6.0,6.0,92,0.00,BKN,,0.00,35.0,WeatherDisplay:10.37,2013-03-11 12:04:00,
2013-03-11 08:09:00,40.5,38.4,30.26,SE,127,10.4,10.4,92,0.00,BKN,,0.00,40.0,WeatherDisplay:10.37,2013-03-11 12:09:00,
2013-03-11 08:14:00,40.6,38.5,30.26,SE,126,10.4,10.4,92,0.00,BKN,,0.00,44.0,WeatherDisplay:10.37,2013-03-11 12:14:00,
2013-03-11 08:19:00,40.7,38.6,30.26,SE,127,4.6,4.6,92,0.00,BKN,,0.00,53.0,WeatherDisplay:10.37,2013-03-11 12:19:00,
2013-03-11 08:24:00,40.9,38.8,30.26,SE,127,4.0,4.0,92,0.00,BKN,,0.00,51.0,WeatherDisplay:10.37,2013-03-11 12:24:00,
2013-03-11 08:29:00,40.9,38.8,30.26,SE,126,6.9,6.9,92,0.00,BKN,,0.00,77.0,WeatherDisplay:10.37,2013-03-11 12:29:00,
2013-03-11 08:34:00,41.1,39.0,30.27,SE,126,2.3,2.3,92,0.00,BKN,,0.00,74.0,WeatherDisplay:10.37,2013-03-11 12:34:00,
2013-03-11 08:39:00,41.3,39.2,30.27,SE,125,0.0,0.0,92,0.00,BKN,,0.00,77.0,WeatherDisplay:10.37,2013-03-11 12:39:00,
2013-03-11 08:44:00,41.3,39.2,30.27,SE,125,3.0,3.0,92,0.00,BKN,,0.00,74.0,WeatherDisplay:10.37,2013-03-11 12:44:00,
2013-03-11 08:49:00,41.5,39.3,30.27,SE,126,3.5,3.5,92,0.00,BKN,,0.00,83.0,WeatherDisplay:10.37,2013-03-11 12:49:00,
2013-03-11 08:54:00,41.5,39.1,30.27,SE,126,3.5,3.5,91,0.00,BKN,,0.00,70.0,WeatherDisplay:10.37,2013-03-11 12:54:00,
2013-03-11 08:59:00,41.7,39.3,30.27,SE,126,3.5,3.5,91,0.00,BKN,,0.00,79.0,WeatherDisplay:10.37,2013-03-11 12:59:00,
2013-03-11 09:04:00,41.7,39.3,30.28,SE,126,3.5,3.5,91,0.00,BKN,,0.00,79.0,WeatherDisplay:10.37,2013-03-11 13:04:00,
2013-03-11 09:09:00,41.8,39.4,30.28,SE,126,3.5,3.5,91,0.00,BKN,,0.00,77.0,WeatherDisplay:10.37,2013-03-11 13:09:00,
2013-03-11 09:14:00,42.0,39.6,30.28,SE,125,2.3,2.3,91,0.00,BKN,,0.00,84.0,WeatherDisplay:10.37,2013-03-11 13:14:00,
2013-03-11 09:19:00,42.1,39.7,30.28,SE,126,3.5,3.5,91,0.00,BKN,,0.00,76.0,WeatherDisplay:10.37,2013-03-11 13:19:00,
2013-03-11 09:24:00,42.3,39.9,30.29,SE,125,2.3,2.3,91,0.00,BKN,,0.00,91.0,WeatherDisplay:10.37,2013-03-11 13:24:00,
2013-03-11 09:29:00,42.6,40.2,30.28,SE,126,0.0,0.0,91,0.00,BKN,,0.00,130.0,WeatherDisplay:10.37,2013-03-11 13:29:00,
2013-03-11 09:34:00,42.8,40.1,30.28,SE,126,3.5,3.5,90,0.00,BKN,,0.00,165.0,WeatherDisplay:10.37,2013-03-11 13:34:00,
2013-03-11 09:39:00,43.1,40.4,30.28,SE,126,4.6,4.6,90,0.00,BKN,,0.00,158.0,WeatherDisplay:10.37,2013-03-11 13:39:00,
2013-03-11 09:44:00,43.4,40.7,30.28,SE,126,4.6,4.6,90,0.00,BKN,,0.00,167.0,WeatherDisplay:10.37,2013-03-11 13:44:00,
2013-03-11 09:49:00,43.4,40.4,30.28,SE,126,4.0,4.0,89,0.00,BKN,,0.00,160.0,WeatherDisplay:10.37,2013-03-11 13:49:00,
2013-03-11 09:54:00,43.7,40.7,30.28,SE,125,3.5,3.5,89,0.00,BKN,,0.00,155.0,WeatherDisplay:10.37,2013-03-11 13:54:00,
2013-03-11 09:59:00,43.8,40.8,30.28,SE,126,0.0,0.0,89,0.00,BKN,,0.00,162.0,WeatherDisplay:10.37,2013-03-11 13:59:00,
2013-03-11 10:04:00,43.8,40.5,30.28,SE,126,0.0,0.0,88,0.00,BKN,,0.00,171.0,WeatherDisplay:10.37,2013-03-11 14:04:00,
2013-03-11 10:09:00,44.1,41.1,30.28,SE,126,0.0,0.0,89,0.00,BKN,,0.00,209.0,WeatherDisplay:10.37,2013-03-11 14:09:00,
2013-03-11 10:14:00,44.7,41.7,30.28,SE,126,0.0,0.0,89,0.00,BKN,,0.00,220.0,WeatherDisplay:10.37,2013-03-11 14:14:00,
2013-03-11 10:19:00,45.1,41.8,30.28,SE,126,3.5,3.5,88,0.00,BKN,,0.00,214.0,WeatherDisplay:10.37,2013-03-11 14:19:00,
2013-03-11 10:24:00,45.4,41.8,30.28,SE,134,3.5,3.5,87,0.00,BKN,,0.00,193.0,WeatherDisplay:10.37,2013-03-11 14:24:00,
2013-03-11 10:29:00,45.6,42.0,30.28,SSE,148,3.5,0.0,87,0.00,BKN,,0.00,211.0,WeatherDisplay:10.37,2013-03-11 14:29:00,
2013-03-11 10:34:00,45.8,42.2,30.29,South,178,8.1,8.1,87,0.00,BKN,,0.00,220.0,WeatherDisplay:10.37,2013-03-11 14:34:00,
2013-03-11 10:39:00,46.1,42.1,30.28,South,180,1.1,0.0,86,0.00,BKN,,0.00,221.0,WeatherDisplay:10.37,2013-03-11 14:39:00,
2013-03-11 10:44:00,46.2,42.2,30.28,SSW,209,7.0,7.0,86,0.00,BKN,,0.00,202.0,WeatherDisplay:10.37,2013-03-11 14:44:00,
2013-03-11 10:49:00,46.3,42.0,30.28,SSW,209,8.1,8.1,85,0.00,BKN,,0.00,269.0,WeatherDisplay:10.37,2013-03-11 14:49:00,
2013-03-11 10:54:00,46.6,42.6,30.28,SSW,195,5.8,5.8,86,0.00,SCT,BKN,0.00,330.0,WeatherDisplay:10.37,2013-03-11 14:54:00,
2013-03-11 10:59:00,46.9,42.6,30.28,SSW,203,9.2,9.2,85,0.00,SCT,BKN,0.00,315.0,WeatherDisplay:10.37,2013-03-11 14:59:00,
2013-03-11 11:04:00,47.0,42.4,30.28,SSW,212,5.8,5.8,84,0.00,BKN,,0.00,283.0,WeatherDisplay:10.37,2013-03-11 15:04:00,
2013-03-11 11:09:00,47.2,42.9,30.27,SSW,209,3.5,0.0,85,0.00,FEW,BKN,0.00,457.0,WeatherDisplay:10.37,2013-03-11 15:09:00,
2013-03-11 11:14:00,48.3,43.7,30.27,South,188,5.8,5.8,84,0.00,FEW,BKN,0.00,441.0,WeatherDisplay:10.37,2013-03-11 15:14:00,
2013-03-11 11:19:00,49.2,43.9,30.27,SW,215,3.5,3.5,82,0.00,FEW,BKN,0.00,431.0,WeatherDisplay:10.37,2013-03-11 15:19:00,
2013-03-11 11:24:00,49.3,43.4,30.26,SSW,207,10.4,10.4,80,0.00,SCT,BKN,0.00,315.0,WeatherDisplay:10.37,2013-03-11 15:24:00,
2013-03-11 11:29:00,48.7,43.1,30.26,SSW,192,6.0,6.0,81,0.00,BKN,,0.00,281.0,WeatherDisplay:10.37,2013-03-11 15:29:00,
2013-03-11 11:34:00,48.9,43.6,30.25,SSW,210,3.5,0.0,82,0.00,SCT,BKN,0.00,308.0,WeatherDisplay:10.37,2013-03-11 15:34:00,
2013-03-11 11:39:00,49.0,43.4,30.25,South,190,5.8,5.8,81,0.00,BKN,,0.00,302.0,WeatherDisplay:10.37,2013-03-11 15:39:00,
2013-03-11 11:44:00,48.8,42.9,30.25,South,186,11.5,11.5,80,0.00,BKN,,0.00,281.0,WeatherDisplay:10.37,2013-03-11 15:44:00,
2013-03-11 11:49:00,48.9,43.3,30.24,SSE,161,9.2,9.2,81,0.00,SCT,BKN,0.00,320.0,WeatherDisplay:10.37,2013-03-11 15:49:00,
2013-03-11 11:54:00,49.2,43.6,30.24,SSE,149,10.0,10.0,81,0.00,SCT,BKN,0.00,336.0,WeatherDisplay:10.37,2013-03-11 15:54:00,
2013-03-11 11:59:00,49.2,43.3,30.24,South,186,6.9,6.9,80,0.00,SCT,BKN,0.00,420.0,WeatherDisplay:10.37,2013-03-11 15:59:00,
2013-03-11 12:04:00,49.4,43.2,30.25,SSW,200,11.5,11.5,79,0.00,SCT,BKN,0.00,464.0,WeatherDisplay:10.37,2013-03-11 16:04:00,
2013-03-11 12:09:00,49.7,43.5,30.25,South,171,9.0,9.0,79,0.00,SCT,BKN,0.00,413.0,WeatherDisplay:10.37,2013-03-11 16:09:00,
2013-03-11 12:14:00,50.1,43.8,30.25,SSW,201,6.9,6.9,79,0.00,SCT,BKN,0.00,394.0,WeatherDisplay:10.37,2013-03-11 16:14:00,
2013-03-11 12:19:00,50.5,43.2,30.26,SSW,198,15.0,15.0,76,0.00,FEW,BKN,0.00,561.0,WeatherDisplay:10.37,2013-03-11 16:19:00,
2013-03-11 12:24:00,49.9,43.0,30.26,SSW,205,11.5,11.5,77,0.00,SCT,BKN,0.00,376.0,WeatherDisplay:10.37,2013-03-11 16:24:00,
2013-03-11 12:29:00,50.4,43.5,30.26,South,190,11.5,11.5,77,0.00,SCT,BKN,0.00,570.0,WeatherDisplay:10.37,2013-03-11 16:29:00,
2013-03-11 12:34:00,50.6,43.0,30.25,SSW,207,9.2,9.2,75,0.00,SCT,BKN,0.00,448.0,WeatherDisplay:10.37,2013-03-11 16:34:00,
2013-03-11 12:39:00,51.2,43.9,30.26,SSE,167,6.0,6.0,76,0.00,FEW,BKN,0.00,554.0,WeatherDisplay:10.37,2013-03-11 16:39:00,
2013-03-11 12:44:00,51.2,43.2,30.25,SSW,209,6.9,6.9,74,0.00,FEW,BKN,0.00,566.0,WeatherDisplay:10.37,2013-03-11 16:44:00,
2013-03-11 12:49:00,51.1,43.4,30.25,SSW,203,4.6,4.6,75,0.00,SCT,BKN,0.00,403.0,WeatherDisplay:10.37,2013-03-11 16:49:00,
2013-03-11 12:54:00,51.3,43.6,30.24,SE,140,6.9,6.9,75,0.00,FEW,BKN,0.00,527.0,WeatherDisplay:10.37,2013-03-11 16:54:00,
2013-03-11 12:59:00,52.0,43.6,30.24,SW,221,6.9,6.9,73,0.00,SCT,BKN,0.00,726.0,WeatherDisplay:10.37,2013-03-11 16:59:00,
2013-03-11 13:04:00,51.8,42.7,30.23,SW,226,13.8,13.8,71,0.00,CLR,BKN,0.00,656.0,WeatherDisplay:10.37,2013-03-11 17:04:00,
2013-03-11 13:09:00,51.0,43.0,30.23,SE,142,10.4,10.4,74,0.00,CLR,BKN,0.00,647.0,WeatherDisplay:10.37,2013-03-11 17:09:00,
2013-03-11 13:14:00,51.3,42.9,30.23,SSE,165,5.8,5.8,73,0.00,FEW,BKN,0.00,610.0,WeatherDisplay:10.37,2013-03-11 17:14:00,
2013-03-11 13:19:00,51.7,43.3,30.23,SW,218,5.8,5.8,73,0.00,FEW,BKN,0.00,606.0,WeatherDisplay:10.37,2013-03-11 17:19:00,
2013-03-11 13:24:00,51.9,42.8,30.23,South,186,10.4,10.4,71,0.00,CLR,BKN,0.00,689.0,WeatherDisplay:10.37,2013-03-11 17:24:00,
2013-03-11 13:29:00,51.8,43.1,30.23,SSW,208,6.0,6.0,72,0.00,CLR,BKN,0.00,664.0,WeatherDisplay:10.37,2013-03-11 17:29:00,
2013-03-11 13:34:00,52.0,43.3,30.23,South,184,7.0,7.0,72,0.00,CLR,BKN,0.00,624.0,WeatherDisplay:10.37,2013-03-11 17:34:00,
2013-03-11 13:39:00,52.1,43.7,30.22,SSW,208,10.0,10.0,73,0.00,FEW,BKN,0.00,587.0,WeatherDisplay:10.37,2013-03-11 17:39:00,
2013-03-11 13:45:00,52.0,43.3,30.22,SSE,160,9.2,9.2,72,0.00,FEW,BKN,0.00,584.0,WeatherDisplay:10.37,2013-03-11 17:45:00,
2013-03-11 13:50:00,51.5,43.1,30.22,South,179,10.4,10.4,73,0.00,FEW,BKN,0.00,561.0,WeatherDisplay:10.37,2013-03-11 17:50:00,
2013-03-11 13:55:00,51.8,43.8,30.22,SE,136,5.8,5.8,74,0.00,FEW,BKN,0.00,587.0,WeatherDisplay:10.37,2013-03-11 17:55:00,
2013-03-11 14:00:00,52.6,44.2,30.22,SSE,156,9.2,9.2,73,0.00,SCT,BKN,0.00,541.0,WeatherDisplay:10.37,2013-03-11 18:00:00,
2013-03-11 14:05:00,51.8,43.4,30.22,SE,135,11.5,11.5,73,0.00,FEW,BKN,0.00,552.0,WeatherDisplay:10.37,2013-03-11 18:05:00,
2013-03-11 14:10:00,51.4,43.0,30.21,SSW,206,12.0,12.0,73,0.00,FEW,BKN,0.00,550.0,WeatherDisplay:10.37,2013-03-11 18:10:00,
2013-03-11 14:15:00,51.2,43.2,30.21,SSE,150,10.4,10.4,74,0.00,FEW,BKN,0.00,559.0,WeatherDisplay:10.37,2013-03-11 18:15:00,
2013-03-11 14:20:00,50.9,42.9,30.21,SSE,165,16.1,16.1,74,0.00,SCT,BKN,0.00,476.0,WeatherDisplay:10.37,2013-03-11 18:20:00,
2013-03-11 14:25:00,51.1,43.1,30.21,SE,137,13.8,13.8,74,0.00,SCT,BKN,0.00,471.0,WeatherDisplay:10.37,2013-03-11 18:25:00,
2013-03-11 14:30:00,50.7,43.1,30.21,SSW,193,9.2,9.2,75,0.00,SCT,BKN,0.00,399.0,WeatherDisplay:10.37,2013-03-11 18:30:00,
2013-03-11 14:35:00,51.1,43.4,30.21,SSE,150,5.8,5.8,75,0.00,SCT,BKN,0.00,418.0,WeatherDisplay:10.37,2013-03-11 18:35:00,
2013-03-11 14:40:00,51.7,43.7,30.21,SSW,201,12.7,12.7,74,0.00,SCT,BKN,0.00,406.0,WeatherDisplay:10.37,2013-03-11 18:40:00,
2013-03-11 14:45:00,51.2,43.2,30.20,SW,219,5.8,5.8,74,0.00,SCT,BKN,0.00,427.0,WeatherDisplay:10.37,2013-03-11 18:45:00,
2013-03-11 14:50:00,51.5,43.8,30.20,South,174,4.6,4.6,75,0.00,SCT,BKN,0.00,431.0,WeatherDisplay:10.37,2013-03-11 18:50:00,
2013-03-11 14:55:00,51.9,44.2,30.20,SSE,167,4.6,4.6,75,0.00,SCT,BKN,0.00,439.0,WeatherDisplay:10.37,2013-03-11 18:55:00,
2013-03-11 15:00:00,52.2,44.5,30.20,SSW,200,9.2,9.2,75,0.00,SCT,BKN,0.00,346.0,WeatherDisplay:10.37,2013-03-11 19:00:00,
2013-03-11 15:05:00,52.3,44.6,30.19,South,182,2.3,2.3,75,0.00,SCT,BKN,0.00,323.0,WeatherDisplay:10.37,2013-03-11 19:05:00,
2013-03-11 15:10:00,52.1,44.4,30.19,SE,142,10.4,10.4,75,0.00,SCT,BKN,0.00,401.0,WeatherDisplay:10.37,2013-03-11 19:10:00,
2013-03-11 15:15:00,51.8,44.5,30.20,SE,146,6.9,6.9,76,0.00,FEW,BKN,0.00,436.0,WeatherDisplay:10.37,2013-03-11 19:15:00,
2013-03-11 15:20:00,51.9,44.2,30.19,SE,144,12.7,12.7,75,0.00,SCT,BKN,0.00,295.0,WeatherDisplay:10.37,2013-03-11 19:20:00,
2013-03-11 15:25:00,51.6,44.6,30.19,SSE,148,11.5,11.5,77,0.00,SCT,BKN,0.00,332.0,WeatherDisplay:10.37,2013-03-11 19:25:00,
2013-03-11 15:30:00,51.2,44.2,30.19,South,170,18.4,18.4,77,0.00,SCT,BKN,0.00,283.0,WeatherDisplay:10.37,2013-03-11 19:30:00,
2013-03-11 15:35:00,50.9,44.3,30.19,SSE,148,9.2,9.2,78,0.00,BKN,,0.00,267.0,WeatherDisplay:10.37,2013-03-11 19:35:00,
2013-03-11 15:40:00,51.2,44.9,30.19,SE,132,6.0,6.0,79,0.00,BKN,,0.00,234.0,WeatherDisplay:10.37,2013-03-11 19:40:00,
2013-03-11 15:45:00,51.1,44.5,30.19,SE,140,12.7,12.7,78,0.00,BKN,,0.00,204.0,WeatherDisplay:10.37,2013-03-11 19:45:00,
2013-03-11 15:50:00,50.7,44.4,30.19,South,180,12.0,12.0,79,0.00,BKN,,0.00,216.0,WeatherDisplay:10.37,2013-03-11 19:50:00,
2013-03-11 15:55:00,50.9,44.6,30.19,SE,142,11.5,11.5,79,0.00,BKN,,0.00,218.0,WeatherDisplay:10.37,2013-03-11 19:55:00,
2013-03-11 16:00:00,50.9,44.6,30.19,SE,142,10.4,10.4,79,0.00,BKN,,0.00,234.0,WeatherDisplay:10.37,2013-03-11 20:00:00,
2013-03-11 16:05:00,50.9,44.6,30.19,SSE,157,13.8,13.8,79,0.00,BKN,,0.00,221.0,WeatherDisplay:10.37,2013-03-11 20:05:00,
2013-03-11 16:10:00,50.8,44.5,30.19,SSE,157,4.6,4.6,79,0.00,BKN,,0.00,200.0,WeatherDisplay:10.37,2013-03-11 20:10:00,
2013-03-11 16:15:00,50.9,44.6,30.19,SSE,153,11.5,11.5,79,0.00,BKN,,0.00,176.0,WeatherDisplay:10.37,2013-03-11 20:15:00,
2013-03-11 16:20:00,51.0,44.7,30.18,ESE,117,6.0,6.0,79,0.00,BKN,,0.00,185.0,WeatherDisplay:10.37,2013-03-11 20:20:00,
2013-03-11 16:25:00,50.6,44.7,30.18,SSE,160,11.5,11.5,80,0.00,BKN,,0.00,181.0,WeatherDisplay:10.37,2013-03-11 20:25:00,
2013-03-11 16:30:00,50.5,44.9,30.18,SE,136,11.5,11.5,81,0.00,BKN,,0.00,172.0,WeatherDisplay:10.37,2013-03-11 20:30:00,
2013-03-11 16:35:00,50.6,45.0,30.18,SSW,194,3.5,3.5,81,0.00,BKN,,0.00,163.0,WeatherDisplay:10.37,2013-03-11 20:35:00,
2013-03-11 16:40:00,50.6,45.0,30.18,SE,130,11.5,11.5,81,0.00,BKN,,0.00,134.0,WeatherDisplay:10.37,2013-03-11 20:40:00,
2013-03-11 16:45:00,50.8,45.2,30.18,ESE,123,10.4,10.4,81,0.00,BKN,,0.00,121.0,WeatherDisplay:10.37,2013-03-11 20:45:00,
2013-03-11 16:50:00,50.6,45.3,30.18,SE,141,7.0,7.0,82,0.00,BKN,,0.00,104.0,WeatherDisplay:10.37,2013-03-11 20:50:00,
2013-03-11 16:55:00,50.6,45.3,30.17,ESE,113,11.0,11.0,82,0.00,BKN,,0.00,98.0,WeatherDisplay:10.37,2013-03-11 20:55:00,
2013-03-11 17:00:00,50.3,45.3,30.17,SSE,155,11.5,11.5,83,0.00,BKN,,0.00,90.0,WeatherDisplay:10.37,2013-03-11 21:00:00,
2013-03-11 17:05:00,50.1,45.1,30.17,SSE,165,11.5,11.5,83,0.00,BKN,,0.00,86.0,WeatherDisplay:10.37,2013-03-11 21:05:00,
2013-03-11 17:10:00,49.9,45.3,30.17,SSE,149,6.9,6.9,84,0.00,BKN,,0.00,77.0,WeatherDisplay:10.37,2013-03-11 21:10:00,
2013-03-11 17:15:00,49.9,45.3,30.16,ESE,120,11.5,11.5,84,0.00,BKN,,0.00,76.0,WeatherDisplay:10.37,2013-03-11 21:15:00,
2013-03-11 17:20:00,49.9,45.3,30.16,SE,146,9.2,9.2,84,0.00,BKN,,0.00,79.0,WeatherDisplay:10.37,2013-03-11 21:20:00,
2013-03-11 17:25:00,49.7,45.1,30.16,SE,140,11.5,11.5,84,0.00,BKN,,0.00,79.0,WeatherDisplay:10.37,2013-03-11 21:25:00,
2013-03-11 17:30:00,49.5,44.9,30.16,SSE,157,15.0,15.0,84,0.00,BKN,,0.00,79.0,WeatherDisplay:10.37,2013-03-11 21:30:00,
2013-03-11 17:35:00,49.4,45.1,30.16,SE,144,11.5,11.5,85,0.00,BKN,,0.00,76.0,WeatherDisplay:10.37,2013-03-11 21:35:00,
2013-03-11 17:40:00,49.2,44.9,30.16,South,187,11.5,11.5,85,0.00,BKN,,0.00,83.0,WeatherDisplay:10.37,2013-03-11 21:40:00,
2013-03-11 17:45:00,49.4,45.4,30.16,SE,126,8.1,8.1,86,0.00,BKN,,0.00,86.0,WeatherDisplay:10.37,2013-03-11 21:45:00,
2013-03-11 17:50:00,49.3,45.3,30.16,ESE,106,13.8,13.8,86,0.00,SCT,BKN,0.00,86.0,WeatherDisplay:10.37,2013-03-11 21:50:00,
2013-03-11 17:55:00,49.1,45.1,30.16,SSE,148,11.0,11.0,86,0.00,SCT,BKN,0.00,81.0,WeatherDisplay:10.37,2013-03-11 21:55:00,
2013-03-11 18:00:00,49.1,45.1,30.16,SE,142,13.8,13.8,86,0.00,SCT,BKN,0.00,74.0,WeatherDisplay:10.37,2013-03-11 22:00:00,
2013-03-11 18:05:00,49.1,45.1,30.15,ESE,114,13.8,13.8,86,0.00,SCT,BKN,0.00,65.0,WeatherDisplay:10.37,2013-03-11 22:05:00,
2013-03-11 18:10:00,49.1,45.4,30.15,SSE,155,12.7,12.7,87,0.00,BKN,,0.00,47.0,WeatherDisplay:10.37,2013-03-11 22:10:00,
2013-03-11 18:15:00,49.1,45.4,30.16,SE,144,11.5,11.5,87,0.00,BKN,,0.00,40.0,WeatherDisplay:10.37,2013-03-11 22:15:00,
2013-03-11 18:21:00,49.0,45.3,30.16,SE,141,17.3,17.3,87,0.00,BKN,,0.00,32.0,WeatherDisplay:10.37,2013-03-11 22:21:00,
2013-03-11 18:26:00,49.0,45.3,30.15,SSE,148,11.5,11.5,87,0.00,BKN,,0.00,26.0,WeatherDisplay:10.37,2013-03-11 22:26:00,
2013-03-11 18:31:00,49.0,45.3,30.16,East,94,9.2,9.2,87,0.00,BKN,,0.00,18.0,WeatherDisplay:10.37,2013-03-11 22:31:00,
2013-03-11 18:36:00,49.0,45.3,30.15,SE,134,11.5,11.5,87,0.00,BKN,,0.00,12.0,WeatherDisplay:10.37,2013-03-11 22:36:00,
2013-03-11 18:41:00,49.0,45.3,30.15,ESE,122,11.5,11.5,87,0.00,BKN,,0.00,9.0,WeatherDisplay:10.37,2013-03-11 22:41:00,
2013-03-11 18:47:00,48.9,45.2,30.15,SE,138,11.5,11.5,87,0.00,BKN,,0.00,5.0,WeatherDisplay:10.37,2013-03-11 22:47:00,
2013-03-11 18:52:00,48.9,45.5,30.15,SE,140,8.1,8.1,88,0.00,OVC,BKN,0.00,0.0,WeatherDisplay:10.37,2013-03-11 22:52:00,
2013-03-11 18:57:00,48.9,45.5,30.15,SE,134,11.5,11.5,88,0.00,OVC,BKN,0.00,0.0,WeatherDisplay:10.37,2013-03-11 22:57:00,
2013-03-11 19:02:00,48.7,45.3,30.15,SE,144,12.7,12.7,88,0.00,CLR,BKN,0.00,0.0,WeatherDisplay:10.37,2013-03-11 23:02:00,
2013-03-11 19:07:00,48.7,45.3,30.15,SE,134,11.0,11.0,88,0.00,CLR,BKN,0.00,0.0,WeatherDisplay:10.37,2013-03-11 23:07:00,
2013-03-11 19:12:00,48.6,45.5,30.15,SE,141,11.5,11.5,89,0.00,CLR,BKN,0.00,0.0,WeatherDisplay:10.37,2013-03-11 23:12:00,
2013-03-11 19:17:00,48.6,45.5,30.15,ESE,121,9.0,9.0,89,0.00,CLR,BKN,0.00,0.0,WeatherDisplay:10.37,2013-03-11 23:17:00,
2013-03-11 19:22:00,48.5,45.4,30.15,SE,146,11.5,11.5,89,0.00,CLR,BKN,0.00,0.0,WeatherDisplay:10.37,2013-03-11 23:22:00,
2013-03-11 19:27:00,48.5,45.4,30.15,SE,137,13.8,13.8,89,0.00,CLR,BKN,0.00,0.0,WeatherDisplay:10.37,2013-03-11 23:27:00,
2013-03-11 19:32:00,48.5,45.4,30.15,SSE,147,13.8,13.8,89,0.00,CLR,BKN,0.00,0.0,WeatherDisplay:10.37,2013-03-11 23:32:00,
2013-03-11 19:37:00,48.6,45.5,30.15,SE,139,11.0,11.0,89,0.00,CLR,BKN,0.00,0.0,WeatherDisplay:10.37,2013-03-11 23:37:00,
2013-03-11 19:43:00,48.6,45.8,30.15,SE,124,11.5,11.5,90,0.00,CLR,BKN,0.00,0.0,WeatherDisplay:10.37,2013-03-11 23:43:00,
2013-03-11 19:48:00,48.5,45.7,30.15,SE,133,8.1,8.1,90,0.00,CLR,BKN,0.00,0.0,WeatherDisplay:10.37,2013-03-11 23:48:00,
2013-03-11 19:53:00,48.3,45.5,30.15,SE,144,9.2,9.2,90,0.00,CLR,BKN,0.00,0.0,WeatherDisplay:10.37,2013-03-11 23:53:00,
2013-03-11 19:58:00,48.1,45.3,30.15,SSE,150,12.7,12.7,90,0.00,CLR,BKN,0.00,0.0,WeatherDisplay:10.37,2013-03-11 23:58:00,
2013-03-11 20:03:00,48.0,45.5,30.15,SE,127,10.4,10.4,91,0.00,CLR,BKN,0.00,0.0,WeatherDisplay:10.37,2013-03-12 00:03:00,
2013-03-11 20:08:00,47.9,45.4,30.15,SE,141,11.5,11.5,91,0.00,CLR,BKN,0.00,0.0,WeatherDisplay:10.37,2013-03-12 00:08:00,
2013-03-11 20:13:00,47.8,45.3,30.15,ESE,121,12.7,12.7,91,0.00,CLR,BKN,0.00,0.0,WeatherDisplay:10.37,2013-03-12 00:13:00,
2013-03-11 20:18:00,47.8,45.3,30.15,SE,131,13.8,13.8,91,0.00,CLR,BKN,0.00,0.0,WeatherDisplay:10.37,2013-03-12 00:18:00,
2013-03-11 20:23:00,47.7,45.5,30.15,SE,143,11.5,11.5,92,0.00,CLR,BKN,0.00,0.0,WeatherDisplay:10.37,2013-03-12 00:23:00,
2013-03-11 20:28:00,47.7,45.5,30.15,SSE,157,11.5,11.5,92,0.00,CLR,BKN,0.00,0.0,WeatherDisplay:10.37,2013-03-12 00:28:00,
2013-03-11 20:33:00,47.7,45.5,30.15,SE,137,9.2,9.2,92,0.00,CLR,BKN,0.00,0.0,WeatherDisplay:10.37,2013-03-12 00:33:00,
2013-03-11 20:38:00,47.8,45.6,30.15,SE,140,12.0,12.0,92,0.00,CLR,BKN,0.00,0.0,WeatherDisplay:10.37,2013-03-12 00:38:00,
2013-03-11 20:43:00,47.9,45.7,30.16,ESE,109,11.5,11.5,92,0.00,CLR,BKN,0.00,0.0,WeatherDisplay:10.37,2013-03-12 00:43:00,
2013-03-11 20:48:00,48.1,45.9,30.16,SSE,149,12.7,12.7,92,0.00,CLR,BKN,0.00,0.0,WeatherDisplay:10.37,2013-03-12 00:48:00,
2013-03-11 20:53:00,48.1,45.9,30.15,ESE,123,11.5,11.5,92,0.00,CLR,BKN,0.00,0.0,WeatherDisplay:10.37,2013-03-12 00:53:00,
2013-03-11 20:58:00,48.3,46.1,30.15,ESE,118,12.0,12.0,92,0.00,CLR,BKN,0.00,0.0,WeatherDisplay:10.37,2013-03-12 00:58:00,
2013-03-11 21:03:00,48.4,46.2,30.15,SE,126,7.0,7.0,92,0.00,CLR,BKN,0.00,0.0,WeatherDisplay:10.37,2013-03-12 01:03:00,
2013-03-11 21:08:00,48.4,46.2,30.15,SE,131,6.9,6.9,92,0.00,CLR,BKN,0.00,0.0,WeatherDisplay:10.37,2013-03-12 01:08:00,
2013-03-11 21:13:00,48.4,46.2,30.15,ESE,123,10.4,10.4,92,0.00,CLR,BKN,0.00,0.0,WeatherDisplay:10.37,2013-03-12 01:13:00,
2013-03-11 21:18:00,48.5,46.3,30.15,SE,129,10.4,10.4,92,0.00,CLR,BKN,0.00,0.0,WeatherDisplay:10.37,2013-03-12 01:18:00,
2013-03-11 21:23:00,48.5,46.6,30.15,SE,129,10.0,10.0,93,0.00,CLR,BKN,0.00,0.0,WeatherDisplay:10.37,2013-03-12 01:23:00,
2013-03-11 21:28:00,48.6,46.7,30.15,SSE,149,4.6,4.6,93,0.00,CLR,BKN,0.00,0.0,WeatherDisplay:10.37,2013-03-12 01:28:00,
2013-03-11 21:33:00,48.6,46.7,30.14,SSE,163,9.2,9.2,93,0.00,CLR,BKN,0.00,0.0,WeatherDisplay:10.37,2013-03-12 01:33:00,
2013-03-11 21:38:00,48.5,46.6,30.14,SE,134,9.2,9.2,93,0.00,CLR,BKN,0.00,0.0,WeatherDisplay:10.37,2013-03-12 01:38:00,
2013-03-11 21:43:00,48.4,46.5,30.14,SE,131,11.5,11.5,93,0.00,CLR,BKN,0.00,0.0,WeatherDisplay:10.37,2013-03-12 01:43:00,
2013-03-11 21:48:00,48.5,46.6,30.14,SE,146,10.4,10.4,93,0.00,CLR,BKN,0.00,0.0,WeatherDisplay:10.37,2013-03-12 01:48:00,
2013-03-11 21:54:00,48.5,46.6,30.15,SE,140,11.5,11.5,93,0.00,CLR,BKN,0.00,0.0,WeatherDisplay:10.37,2013-03-12 01:54:00,
2013-03-11 21:59:00,48.5,46.6,30.14,South,175,7.0,7.0,93,0.00,CLR,BKN,0.00,0.0,WeatherDisplay:10.37,2013-03-12 01:59:00,
2013-03-11 22:04:00,48.5,46.6,30.14,SE,141,12.0,12.0,93,0.00,CLR,BKN,0.00,0.0,WeatherDisplay:10.37,2013-03-12 02:04:00,
2013-03-11 22:09:00,48.4,46.5,30.14,ESE,113,11.5,11.5,93,0.00,CLR,BKN,0.00,0.0,WeatherDisplay:10.37,2013-03-12 02:09:00,
2013-03-11 22:14:00,48.5,46.6,30.14,SE,141,10.4,10.4,93,0.00,CLR,BKN,0.00,0.0,WeatherDisplay:10.37,2013-03-12 02:14:00,
2013-03-11 22:19:00,48.5,46.6,30.14,SE,125,17.3,17.3,93,0.00,CLR,BKN,0.00,0.0,WeatherDisplay:10.37,2013-03-12 02:19:00,
2013-03-11 22:24:00,48.6,46.7,30.14,SE,140,11.5,11.5,93,0.00,CLR,BKN,0.00,0.0,WeatherDisplay:10.37,2013-03-12 02:24:00,
2013-03-11 22:29:00,48.7,46.8,30.14,SE,142,11.5,11.5,93,0.00,CLR,BKN,0.00,0.0,WeatherDisplay:10.37,2013-03-12 02:29:00,
2013-03-11 22:34:00,48.7,46.8,30.13,SSE,148,12.7,12.7,93,0.00,CLR,BKN,0.00,0.0,WeatherDisplay:10.37,2013-03-12 02:34:00,
2013-03-11 22:39:00,48.9,47.0,30.13,SE,140,6.9,6.9,93,0.00,CLR,BKN,0.00,0.0,WeatherDisplay:10.37,2013-03-12 02:39:00,
2013-03-11 22:44:00,48.9,47.0,30.13,SSE,151,4.6,4.6,93,0.00,CLR,BKN,0.00,0.0,WeatherDisplay:10.37,2013-03-12 02:44:00,
2013-03-11 22:49:00,49.0,47.1,30.12,SSE,147,13.8,13.8,93,0.00,CLR,BKN,0.00,0.0,WeatherDisplay:10.37,2013-03-12 02:49:00,
2013-03-11 22:54:00,49.1,47.2,30.12,SSE,159,10.4,10.4,93,0.00,CLR,BKN,0.00,0.0,WeatherDisplay:10.37,2013-03-12 02:54:00,
2013-03-11 22:59:00,49.2,47.3,30.12,South,169,12.7,12.7,93,0.00,CLR,BKN,0.00,0.0,WeatherDisplay:10.37,2013-03-12 02:59:00,
2013-03-11 23:04:00,49.3,47.4,30.12,SE,144,11.5,11.5,93,0.00,CLR,BKN,0.00,0.0,WeatherDisplay:10.37,2013-03-12 03:04:00,
2013-03-11 23:09:00,49.4,47.5,30.12,South,171,9.2,9.2,93,0.00,CLR,BKN,0.00,0.0,WeatherDisplay:10.37,2013-03-12 03:09:00,
2013-03-11 23:14:00,49.4,47.5,30.12,SSE,165,11.5,11.5,93,0.00,CLR,BKN,0.00,0.0,WeatherDisplay:10.37,2013-03-12 03:14:00,
2013-03-11 23:19:00,49.4,47.5,30.12,SSE,148,9.2,9.2,93,0.00,CLR,BKN,0.00,0.0,WeatherDisplay:10.37,2013-03-12 03:19:00,
2013-03-11 23:24:00,49.4,47.5,30.12,South,186,11.5,11.5,93,0.00,CLR,BKN,0.00,0.0,WeatherDisplay:10.37,2013-03-12 03:24:00,
2013-03-11 23:29:00,49.4,47.5,30.12,SSE,161,11.5,11.5,93,0.00,CLR,BKN,0.00,0.0,WeatherDisplay:10.37,2013-03-12 03:29:00,
2013-03-11 23:34:00,49.4,47.5,30.12,South,185,5.8,5.8,93,0.00,CLR,BKN,0.00,0.0,WeatherDisplay:10.37,2013-03-12 03:34:00,
2013-03-11 23:39:00,49.4,47.5,30.12,South,183,10.4,10.4,93,0.00,CLR,BKN,0.00,0.0,WeatherDisplay:10.37,2013-03-12 03:39:00,
2013-03-11 23:44:00,49.4,47.5,30.12,SE,142,10.4,10.4,93,0.00,CLR,BKN,0.00,0.0,WeatherDisplay:10.37,2013-03-12 03:44:00,
2013-03-11 23:49:00,49.5,47.6,30.12,SSW,195,10.4,10.4,93,0.00,CLR,BKN,0.00,0.0,WeatherDisplay:10.37,2013-03-12 03:49:00,
2013-03-11 23:54:00,49.5,47.6,30.12,South,172,15.0,15.0,93,0.00,CLR,BKN,0.00,0.0,WeatherDisplay:10.37,2013-03-12 03:54:00,
2013-03-11 23:59:00,49.6,47.7,30.12,SSE,168,10.4,10.4,93,0.00,CLR,BKN,0.00,0.0,WeatherDisplay:10.37,2013-03-12 03:59:00,